Newtownabbey, United Kingdom
Current Conditions -  °F | °C
As of 8:50 PM on Friday 19 Dec 2014 (Local Time) from EGAC Reporting Station
Few Clouds Few Clouds  
Wind Chill: 35°   Ceiling: Unl
Heat Index: 43°   Visibility: 6mi
Dew Point: 37°   Wind: 15mph
Humidity: 81%   Direction: 250°WSW
Pressure: 30"   Gusts: NA
Location:  54.68°N, 5.97°W
Report Text: EGAC 192050Z 25013KT 9999 FEW040 06/03 Q1016
Loading
Personal Weather Stations






























Interactive Weather Map New forecast layout! Learn more

10-Day Weather Forecast

Advertisements
Track Severe Weather on mobile